| Station | Date | Time | Temp (°F) | RH (%) | Dew Pt (°F) | Wind Dir (°) | Wind Spd (mph) | Wind Gust (mph) | Solar Rad (W/m2) | Pressure (mb) | Daily Min Temp (°F) | Daily Max Temp (°F) | Daily Max Wind (mph) | Daily Rain (In) | Yest MinT (°F) | Yest MaxT (°F) | Yest MaxGst (mph) | Yest Precip (In) | MinBV Day (V) |
|---|---|---|---|---|---|---|---|---|---|---|---|---|---|---|---|---|---|---|---|
| MWA Office | 5/8/26 | 2345 | 62.5 1.7 | 45 9 | 40.9 6.4 | ENE | 68 | 0.9 0.2 | 3.7 1.8 | 0 0 | 1,014.4 0.2 | 51.5 4.4 | 93.3 2.2 | 23.4 2.0 | 0.00 | 47.1 | 91.1 | 21.5 | 0.00 | 12.4 0.0 |
| MWA OPS | 5/8/26 | 2345 | 60.4 0.9 | 52 15 | 42.7 7.4 | S | 184 | 4.3 0.3 | 7.2 0.2 | 0 0 | 1,013.8 1.1 | 53.9 3.5 | 90.4 0.9 | 24.1 2.8 | 0.00 | 50.4 | 89.5 | 21.3 | 0.00 | 12.8 0.0 |
| LV-PS | 5/8/26 | 2345 | 67.6 0.8 | 32 5 | 36.8 4.7 | SW | 235 | 3.9 0.8 | 6.8 0.2 | 0 0 | 1,011.5 1.3 | 59.2 6.0 | 93.9 4.1 | 22.6 1.3 | 0.00 | 53.2 | 89.8 | 23.9 | 0.00 | 12.8 0.0 |
| JV-PS | 5/8/26 | 2345 | 72.8 0.5 | 23 5 | 33.3 4.3 | SW | 229 | 5.4 3.4 | 9.9 4.6 | 0 0 | 1,010.2 1.2 | 66.9 15.0 | 93.5 3.5 | 21.9 0.2 | 0.00 | 51.8 | 90.0 | 22.1 | 0.00 | 12.9 0.0 |
| BDVWA | 5/8/26 | 2345 | 73.5 0.8 | 22 2 | 31.9 2.4 | W | 264 | 3.9 7.9 | 6.4 14.0 | 0 0 | 1,009.1 0.9 | 68.4 5.7 | 90.6 4.3 | 20.0 6.4 | 0.00 | 62.7 | 86.3 | 26.3 | 0.00 | 12.9 0.0 |
| Newberry Springs | 5/8/26 | 2345 | 77.9 2.7 | 31 4 | 45.2 1.4 | N | 355 | 16.0 0.0 | 23.9 1.5 | 0 0 | 1,008.9 0.6 | 67.1 5.1 | 98.9 3.6 | 28.7 7.0 | 0.00 | 62.1 | 95.3 | 35.7 | 0.00 | 12.9 0.0 |
| Pinon Hills | 5/8/26 | 2345 | 57.3 8.8 | 42 16 | 34.4 4.5 | SW | 221 | 2.5 2.2 | 4.4 7.9 | 0 0 | 1,014.2 1.4 | 54.2 3.4 | 83.9 2.9 | 17.1 8.1 | 0.00 | 57.6 | 81.0 | 25.2 | 0.00 | 12.9 0.0 |
| Helendale | 5/8/26 | 2345 | 69.4 1.6 | 47 4 | 48.4 1.0 | SSW | 201 | 7.2 0.8 | 10.5 3.3 | 0 0 | 1,011.6 0.8 | 60.0 10.8 | 95.4 2.1 | 25.0 4.2 | 0.00 | 49.2 | 93.3 | 29.2 | 0.00 | 12.8 0.0 |
| Lenwood | 5/8/26 | 2345 | 70.5 0.2 | 40 4 | 44.9 2.3 | WSW | 255 | 3.6 4.8 | 5.5 6.4 | 0 0 | 1,011.4 0.7 | 61.4 13.0 | 98.2 4.3 | 23.2 2.2 | 0.00 | 48.4 | 93.9 | 25.4 | 0.00 | 12.8 0.1 |
| Oak Hills | 5/8/26 | 2345 | 60.1 0.4 | 58 17 | 45.1 6.4 | SW | 215 | 6.7 0.1 | 11.2 1.8 | 0 0 | 1,013.8 1.4 | 56.4 4.8 | 80.0 1.9 | 21.7 3.5 | 0.00 | 51.6 | 81.9 | 18.2 | 0.00 | 13.0 0.0 |
| Pipes Wash Canyon | 5/8/26 | 2345 | 71.6 3.8 | 15 9 | 21.0 8.8 | WSW | 243 | 3.5 1.3 | 6.1 7.2 | 0 0 | 1,008.6 2.2 | 63.1 7.1 | 86.2 3.3 | 21.3 9.9 | 0.00 | 56.0 | 82.9 | 31.1 | 0.00 | 12.9 0.0 |
| Max | 77.9 | 58 | 48.4 | - | 16.0 | 23.9 | 0 | 1,014.4 | 68.4 | 98.9 | 28.7 | 0.00 | 62.7 | 95.3 | 35.7 | 0.00 | 13.0 | ||
| Avg | 67.6 | 37 | 38.6 | - | 5.3 | 8.7 | 0 | 1,011.6 | - | - | - | - | - | - | - | - | - | ||
| Min | 57.3 | 15 | 21.0 | - | 0.9 | 3.7 | 0 | 1,008.6 | 51.5 | 80.0 | 17.1 | 0.00 | 47.1 | 81.0 | 18.2 | 0.00 | 12.4 |
| Station | Date | Time | Latest Rain (In) | Daily Rain (In) | Yest Precip (In) | Month Precip (In) | Season Precip (In) | Daily ETo (in) | Yest ETo (In) | 7 Day ETo (in) |
|---|---|---|---|---|---|---|---|---|---|---|
| MWA Office | 5/8/26 | 2345 | 0.00 | 0.00 | 0.00 | 0.00 | 4.30 | 0.287 | 0.26 | 1.57 |
| MWA OPS | 5/8/26 | 2345 | 0.00 | 0.00 | 0.00 | 0.00 | 9.32 | 0.295 | 0.26 | 1.59 |
| LV-PS | 5/8/26 | 2345 | 0.00 | 0.00 | 0.00 | 0.00 | 3.63 | 0.330 | 0.29 | 1.81 |
| JV-PS | 5/8/26 | 2345 | 0.00 | 0.00 | 0.00 | 0.02 | 6.39 | 0.352 | 0.30 | 1.85 |
| BDVWA | 5/8/26 | 2345 | 0.00 | 0.00 | 0.00 | 0.03 | 6.39 | 0.309 | 0.32 | 1.76 |
| Newberry Springs | 5/8/26 | 2345 | 0.00 | 0.00 | 0.00 | 0.00 | 2.70 | 0.398 | 0.36 | 2.01 |
| Pinon Hills | 5/8/26 | 2345 | 0.00 | 0.00 | 0.00 | 0.00 | 15.51 | 0.257 | 0.28 | 1.53 |
| Helendale | 5/8/26 | 2345 | 0.00 | 0.00 | 0.00 | 0.00 | 5.55 | 0.329 | 0.30 | 1.78 |
| Lenwood | 5/8/26 | 2345 | 0.00 | 0.00 | 0.00 | 0.00 | 4.24 | 0.323 | 0.30 | 1.86 |
| Oak Hills | 5/8/26 | 2345 | 0.00 | 0.00 | 0.00 | 0.00 | 14.72 | 0.261 | 0.25 | 1.35 |
| Pipes Wash Canyon | 5/8/26 | 2345 | 0.00 | 0.00 | 0.00 | 0.00 | 13.92 | 0.275 | 0.27 | 1.49 |
| Max | 0.00 | 0.00 | 0.00 | 0.03 | 15.51 | 0.398 | 0.36 | 2.01 | ||
| Avg | 0.00 | - | - | - | - | - | - | - | ||
| Min | 0.00 | 0.00 | 0.00 | 0.00 | 2.70 | 0.257 | 0.25 | 1.35 |